createdAt,value
2023-02-12T00:01:08.334Z,17.37
2023-02-12T00:03:34.911Z,17.37
2023-02-12T00:06:01.826Z,17.36
2023-02-12T00:08:28.272Z,17.36
2023-02-12T00:10:54.563Z,17.35
2023-02-12T00:13:20.995Z,17.35
2023-02-12T00:15:47.970Z,17.34
2023-02-12T00:18:14.955Z,17.34
2023-02-12T00:20:41.582Z,17.33
2023-02-12T00:23:08.584Z,17.32
2023-02-12T00:25:34.983Z,17.31
2023-02-12T00:28:02.021Z,17.31
2023-02-12T00:30:28.969Z,17.30
2023-02-12T00:32:56.017Z,17.29
2023-02-12T00:35:22.271Z,17.29
2023-02-12T00:37:49.524Z,17.28
2023-02-12T00:40:16.090Z,17.28
2023-02-12T00:42:42.631Z,17.27
2023-02-12T00:45:08.994Z,17.25
2023-02-12T00:47:35.270Z,17.25
2023-02-12T00:50:01.637Z,17.24
2023-02-12T00:52:27.932Z,17.25
2023-02-12T00:54:55.072Z,17.23
2023-02-12T00:57:21.413Z,17.22
2023-02-12T00:59:48.905Z,17.21
2023-02-12T01:02:16.126Z,17.20
2023-02-12T01:04:42.481Z,17.20
2023-02-12T01:07:11.731Z,17.18
2023-02-12T01:09:38.643Z,17.19
2023-02-12T01:12:05.029Z,17.18
2023-02-12T01:14:31.485Z,17.17
2023-02-12T01:16:58.352Z,17.16
2023-02-12T01:19:24.665Z,17.15
2023-02-12T01:21:50.967Z,17.16
2023-02-12T01:24:18.058Z,17.15
2023-02-12T01:26:44.595Z,17.14
2023-02-12T01:29:11.603Z,17.14
2023-02-12T01:31:38.101Z,17.12
2023-02-12T01:34:05.085Z,17.13
2023-02-12T01:36:31.654Z,17.13
2023-02-12T01:38:57.989Z,17.12
2023-02-12T01:41:24.252Z,17.13
2023-02-12T01:43:50.934Z,17.12
2023-02-12T01:46:17.313Z,17.12
2023-02-12T01:48:44.341Z,17.11
2023-02-12T01:51:13.307Z,17.12
2023-02-12T01:53:39.974Z,17.11
2023-02-12T01:56:06.957Z,17.11
2023-02-12T01:58:34.288Z,17.12
2023-02-12T02:01:00.750Z,17.12
2023-02-12T02:03:27.122Z,17.10
2023-02-12T02:05:54.552Z,17.10
2023-02-12T02:08:21.331Z,17.10
2023-02-12T02:10:47.751Z,17.09
2023-02-12T02:13:14.026Z,17.09
2023-02-12T02:15:43.891Z,17.08
2023-02-12T02:18:10.837Z,17.08
2023-02-12T02:20:37.116Z,17.08
2023-02-12T02:23:03.966Z,17.06
2023-02-12T02:25:30.309Z,17.07
2023-02-12T02:27:56.767Z,17.06
2023-02-12T02:30:24.010Z,17.06
2023-02-12T02:32:50.366Z,17.05
2023-02-12T02:35:16.704Z,17.04
2023-02-12T02:37:43.140Z,17.04
2023-02-12T02:40:09.469Z,17.04
2023-02-12T02:42:36.198Z,17.03
2023-02-12T02:45:03.071Z,17.03
2023-02-12T02:47:29.348Z,17.03
2023-02-12T02:49:55.628Z,17.02
2023-02-12T02:52:21.920Z,17.02
2023-02-12T02:54:48.321Z,17.02
2023-02-12T02:57:14.935Z,17.00
2023-02-12T02:59:41.873Z,17.00
2023-02-12T03:02:08.157Z,16.99
2023-02-12T03:04:35.098Z,16.99
2023-02-12T03:07:01.952Z,16.98
2023-02-12T03:09:28.214Z,16.98
2023-02-12T03:11:54.890Z,16.98
2023-02-12T03:14:21.285Z,16.98
2023-02-12T03:16:47.606Z,16.97
2023-02-12T03:19:13.922Z,16.96
2023-02-12T03:21:40.273Z,16.96
2023-02-12T03:24:06.834Z,16.96
2023-02-12T03:26:33.135Z,16.94
2023-02-12T03:29:00.625Z,16.96
2023-02-12T03:31:26.934Z,16.94
2023-02-12T03:33:53.683Z,16.94
2023-02-12T03:36:20.006Z,16.94
2023-02-12T03:38:46.409Z,16.93
2023-02-12T03:41:12.773Z,16.92
2023-02-12T03:43:39.027Z,16.91
2023-02-12T03:46:05.440Z,16.89
2023-02-12T03:48:32.487Z,16.91
2023-02-12T03:50:58.797Z,16.90
2023-02-12T03:53:25.104Z,16.90
2023-02-12T03:55:51.482Z,16.89
2023-02-12T03:58:17.798Z,16.89
2023-02-12T04:00:44.504Z,16.89
2023-02-12T04:03:10.840Z,16.88
2023-02-12T04:05:38.406Z,16.89
2023-02-12T04:08:04.679Z,16.88
2023-02-12T04:10:31.529Z,16.88
2023-02-12T04:12:57.847Z,16.88
2023-02-12T04:15:24.796Z,16.88
2023-02-12T04:17:52.272Z,16.86
2023-02-12T04:20:18.577Z,16.86
2023-02-12T04:22:44.826Z,16.85
2023-02-12T04:25:11.053Z,16.84
2023-02-12T04:27:37.884Z,16.85
2023-02-12T04:30:04.250Z,16.85
2023-02-12T04:32:30.543Z,16.85
2023-02-12T04:34:56.775Z,16.88
2023-02-12T04:37:22.961Z,16.88
2023-02-12T04:39:49.197Z,16.88
2023-02-12T04:42:15.376Z,16.88
2023-02-12T04:44:41.596Z,16.89
2023-02-12T04:47:07.914Z,16.91
2023-02-12T04:49:34.212Z,16.93
2023-02-12T04:52:00.465Z,16.95
2023-02-12T04:54:27.500Z,16.96
2023-02-12T04:56:53.865Z,16.99
2023-02-12T04:59:20.095Z,17.02
2023-02-12T05:01:46.416Z,17.03
2023-02-12T05:04:12.995Z,17.06
2023-02-12T05:06:39.176Z,17.06
2023-02-12T05:09:05.421Z,17.08
2023-02-12T05:11:31.701Z,17.10
2023-02-12T05:13:58.021Z,17.12
2023-02-12T05:16:24.891Z,17.14
2023-02-12T05:18:51.123Z,17.14
2023-02-12T05:21:18.526Z,17.17
2023-02-12T05:23:44.690Z,17.17
2023-02-12T05:26:10.860Z,17.19
2023-02-12T05:28:38.254Z,17.22
2023-02-12T05:31:04.570Z,17.24
2023-02-12T05:33:30.967Z,17.25
2023-02-12T05:35:57.601Z,17.26
2023-02-12T05:38:23.849Z,17.29
2023-02-12T05:40:50.104Z,17.30
2023-02-12T05:43:16.458Z,17.34
2023-02-12T05:45:42.690Z,17.36
2023-02-12T05:48:09.023Z,17.38
2023-02-12T05:50:35.310Z,17.41
2023-02-12T05:53:01.650Z,17.44
2023-02-12T05:55:27.940Z,17.45
2023-02-12T05:57:54.282Z,17.48
2023-02-12T06:00:20.588Z,17.50
2023-02-12T06:02:47.243Z,17.51
2023-02-12T06:05:13.637Z,17.53
2023-02-12T06:07:39.893Z,17.53
2023-02-12T06:10:06.795Z,17.56
2023-02-12T06:12:33.141Z,17.59
2023-02-12T06:15:03.828Z,17.62
2023-02-12T06:17:30.714Z,17.63
2023-02-12T06:19:56.950Z,17.65
2023-02-12T06:22:23.922Z,17.69
2023-02-12T06:24:50.262Z,17.71
2023-02-12T06:27:16.790Z,17.73
2023-02-12T06:29:44.013Z,17.75
2023-02-12T06:32:10.483Z,17.76
2023-02-12T06:34:38.123Z,17.78
2023-02-12T06:37:04.374Z,17.80
2023-02-12T06:39:31.161Z,17.82
2023-02-12T06:41:57.987Z,17.83
2023-02-12T06:44:24.318Z,17.85
2023-02-12T06:46:50.798Z,17.87
2023-02-12T06:49:18.510Z,17.89
2023-02-12T06:51:44.909Z,17.89
2023-02-12T06:54:11.158Z,17.90
2023-02-12T06:56:37.442Z,17.91
2023-02-12T07:01:54.705Z,17.92
2023-02-12T07:04:21.149Z,17.93
2023-02-12T07:06:48.533Z,17.93
2023-02-12T07:09:14.793Z,17.94
2023-02-12T07:11:41.485Z,17.94
2023-02-12T07:14:08.754Z,17.94
2023-02-12T07:16:35.128Z,17.93
2023-02-12T07:19:01.477Z,17.93
2023-02-12T07:21:27.828Z,17.92
2023-02-12T07:23:54.178Z,17.92
2023-02-12T07:26:20.452Z,17.90
2023-02-12T07:28:46.977Z,17.89
2023-02-12T07:31:13.903Z,17.88
2023-02-12T07:33:40.229Z,17.88
2023-02-12T07:36:06.486Z,17.87
2023-02-12T07:38:32.873Z,17.88
2023-02-12T07:40:59.129Z,17.89
2023-02-12T07:43:25.562Z,17.89
2023-02-12T07:45:52.925Z,17.90
2023-02-12T07:48:20.594Z,17.89
2023-02-12T07:50:46.926Z,17.91
2023-02-12T07:53:13.385Z,17.91
2023-02-12T07:55:39.757Z,17.93
2023-02-12T07:58:06.035Z,17.93
2023-02-12T08:00:32.467Z,17.93
2023-02-12T08:02:58.910Z,17.94
2023-02-12T08:05:25.457Z,17.95
2023-02-12T08:07:51.840Z,17.96
2023-02-12T08:10:21.195Z,17.96
2023-02-12T08:12:47.859Z,17.96
2023-02-12T08:15:14.260Z,17.97
2023-02-12T08:17:40.899Z,17.97
2023-02-12T08:20:07.850Z,17.97
2023-02-12T08:22:34.223Z,17.98
2023-02-12T08:25:01.190Z,17.97
2023-02-12T08:27:27.445Z,17.98
2023-02-12T08:29:53.889Z,17.97
2023-02-12T08:32:20.126Z,17.96
2023-02-12T08:34:46.507Z,17.95
2023-02-12T08:37:13.920Z,17.94
2023-02-12T08:39:40.305Z,17.92
2023-02-12T08:42:06.639Z,17.93
2023-02-12T08:44:33.464Z,17.91
2023-02-12T08:47:00.285Z,17.91
2023-02-12T08:49:26.530Z,17.91
2023-02-12T08:51:52.841Z,17.90
2023-02-12T08:54:19.168Z,17.90
2023-02-12T08:56:45.552Z,17.89
2023-02-12T08:59:12.897Z,17.88
2023-02-12T09:01:39.430Z,17.87
2023-02-12T09:04:06.368Z,17.87
2023-02-12T09:06:32.689Z,17.86
2023-02-12T09:11:50.796Z,17.85
2023-02-12T09:14:17.304Z,17.84
2023-02-12T09:16:44.716Z,17.84
2023-02-12T09:19:16.868Z,17.84
2023-02-12T09:21:43.293Z,17.84
2023-02-12T09:24:09.750Z,17.82
2023-02-12T09:26:36.842Z,17.83
2023-02-12T09:29:03.181Z,17.82
2023-02-12T09:31:29.670Z,17.83
2023-02-12T09:33:56.065Z,17.83
2023-02-12T09:36:22.519Z,17.84
2023-02-12T09:38:48.922Z,17.84
2023-02-12T09:41:15.909Z,17.84
2023-02-12T09:43:42.898Z,17.86
2023-02-12T09:46:09.308Z,17.86
2023-02-12T09:48:36.419Z,17.88
2023-02-12T09:51:02.888Z,17.89
2023-02-12T09:53:29.164Z,17.88
2023-02-12T09:55:55.748Z,17.90
2023-02-12T09:58:22.320Z,17.91
2023-02-12T10:00:48.982Z,17.91
2023-02-12T10:03:15.415Z,17.90
2023-02-12T10:05:41.877Z,17.89
2023-02-12T10:08:08.684Z,17.91
2023-02-12T10:10:35.008Z,17.89
2023-02-12T10:13:01.540Z,17.91
2023-02-12T10:15:31.830Z,17.90
2023-02-12T10:17:58.398Z,17.90
2023-02-12T10:20:24.720Z,17.91
2023-02-12T10:22:56.795Z,17.91
2023-02-12T10:30:58.798Z,17.91
2023-02-12T10:33:25.235Z,17.91
2023-02-12T10:35:58.107Z,17.90
2023-02-12T10:38:24.781Z,17.90
2023-02-12T10:40:51.151Z,17.90
2023-02-12T10:43:17.461Z,17.89
2023-02-12T10:45:43.888Z,17.89
2023-02-12T10:48:10.264Z,17.88
2023-02-12T10:50:36.585Z,17.88
2023-02-12T10:53:02.876Z,17.88
2023-02-12T10:55:29.262Z,17.89
2023-02-12T10:57:55.673Z,17.87
2023-02-12T11:00:22.746Z,17.87
2023-02-12T11:02:49.090Z,17.86
2023-02-12T11:05:15.496Z,17.86
2023-02-12T11:07:41.959Z,17.86
2023-02-12T11:10:08.287Z,17.85
2023-02-12T11:12:34.551Z,17.85
2023-02-12T11:15:00.953Z,17.86
2023-02-12T11:17:27.210Z,17.85
2023-02-12T11:19:53.910Z,17.85
2023-02-12T11:22:20.957Z,17.85
2023-02-12T11:24:47.333Z,17.86
2023-02-12T11:27:13.705Z,17.86
2023-02-12T11:29:40.598Z,17.87
2023-02-12T11:32:06.949Z,17.88
2023-02-12T11:34:33.383Z,17.89
2023-02-12T11:36:59.675Z,17.90
2023-02-12T11:39:26.084Z,17.90
2023-02-12T11:41:52.548Z,17.91
2023-02-12T11:44:18.938Z,17.91
2023-02-12T11:46:45.483Z,17.91
2023-02-12T11:51:55.866Z,17.93
2023-02-12T11:54:22.814Z,17.94
2023-02-12T11:56:49.196Z,17.96
2023-02-12T11:59:15.454Z,17.95
2023-02-12T12:01:42.251Z,17.95
2023-02-12T12:04:08.626Z,17.95
2023-02-12T12:06:46.998Z,17.94
2023-02-12T12:09:13.836Z,17.95
2023-02-12T12:11:40.172Z,17.95
2023-02-12T12:14:06.517Z,17.95
2023-02-12T12:16:33.038Z,17.95
2023-02-12T12:18:59.728Z,17.95
2023-02-12T12:21:26.061Z,17.96
2023-02-12T12:23:52.359Z,17.95
2023-02-12T12:26:18.984Z,17.95
2023-02-12T12:31:29.376Z,17.94
2023-02-12T12:36:44.015Z,17.93
2023-02-12T12:39:10.572Z,17.94
2023-02-12T12:41:36.942Z,17.93
2023-02-12T12:44:03.552Z,17.93
2023-02-12T12:46:30.667Z,17.93
2023-02-12T12:48:57.293Z,17.93
2023-02-12T12:51:23.626Z,17.92
2023-02-12T12:53:50.914Z,17.91
2023-02-12T12:56:17.208Z,17.91
2023-02-12T12:58:46.823Z,17.90
2023-02-12T13:01:13.182Z,17.89
2023-02-12T13:03:39.616Z,17.91
2023-02-12T13:06:06.107Z,17.91
2023-02-12T13:08:32.408Z,17.91
2023-02-12T13:10:58.739Z,17.92
2023-02-12T13:13:25.031Z,17.93
2023-02-12T13:15:51.307Z,17.94
2023-02-12T13:18:17.590Z,17.95
2023-02-12T13:20:43.968Z,17.95
2023-02-12T13:23:10.928Z,17.96
2023-02-12T13:25:38.537Z,17.96
2023-02-12T13:28:05.309Z,17.97
2023-02-12T13:30:32.398Z,17.98
2023-02-12T13:32:59.321Z,17.99
2023-02-12T13:35:25.549Z,18.01
2023-02-12T13:37:52.819Z,18.00
2023-02-12T13:40:19.403Z,18.01
2023-02-12T13:42:45.686Z,18.01
2023-02-12T13:45:11.997Z,18.01
2023-02-12T13:47:38.286Z,18.02
2023-02-12T13:50:04.849Z,18.01
2023-02-12T13:52:31.153Z,18.02
2023-02-12T13:55:00.649Z,18.02
2023-02-12T13:57:30.022Z,18.01
2023-02-12T13:59:56.394Z,18.02
2023-02-12T14:02:22.688Z,18.02
2023-02-12T14:04:49.098Z,18.01
2023-02-12T14:07:15.585Z,18.02
2023-02-12T14:09:41.942Z,18.01
2023-02-12T14:12:08.461Z,18.00
2023-02-12T14:14:34.857Z,18.01
2023-02-12T14:17:01.226Z,17.99
2023-02-12T14:22:27.051Z,17.99
2023-02-12T14:24:53.372Z,17.99
2023-02-12T14:27:19.690Z,17.97
2023-02-12T14:29:46.083Z,17.98
2023-02-12T14:32:12.898Z,17.98
2023-02-12T14:34:39.260Z,17.98
2023-02-12T14:37:07.802Z,17.98
2023-02-12T14:39:34.175Z,17.96
2023-02-12T14:42:00.541Z,17.95
2023-02-12T14:44:26.928Z,17.95
2023-02-12T14:46:56.106Z,17.95
2023-02-12T14:49:22.681Z,17.97
2023-02-12T14:51:49.325Z,17.96
2023-02-12T14:54:15.657Z,17.95
2023-02-12T14:56:42.301Z,17.96
2023-02-12T14:59:09.344Z,17.95
2023-02-12T15:01:35.973Z,17.95
2023-02-12T15:04:04.451Z,17.95
2023-02-12T15:06:30.826Z,17.95
2023-02-12T15:08:57.387Z,17.95
2023-02-12T15:11:23.720Z,17.95
2023-02-12T15:13:50.198Z,17.95
2023-02-12T15:16:16.904Z,17.95
2023-02-12T15:18:43.282Z,17.94
2023-02-12T15:21:09.651Z,17.95
2023-02-12T15:23:36.188Z,17.95
2023-02-12T15:26:02.785Z,17.94
2023-02-12T15:28:29.191Z,17.95
2023-02-12T15:30:55.590Z,17.94
2023-02-12T15:36:17.907Z,17.92
2023-02-12T15:38:44.219Z,17.93
2023-02-12T15:41:23.588Z,17.92
2023-02-12T15:46:31.295Z,17.90
2023-02-12T15:48:58.522Z,17.91
2023-02-12T15:51:25.112Z,17.90
2023-02-12T15:53:51.476Z,17.89
2023-02-12T15:56:18.502Z,17.88
2023-02-12T15:58:45.893Z,17.87
2023-02-12T16:01:12.292Z,17.87
2023-02-12T16:03:41.117Z,17.86
2023-02-12T16:06:08.395Z,17.86
2023-02-12T16:08:34.864Z,17.85
2023-02-12T16:11:01.525Z,17.83
2023-02-12T16:13:28.399Z,17.84
2023-02-12T16:15:55.105Z,17.84
2023-02-12T16:18:21.762Z,17.85
2023-02-12T16:20:48.400Z,17.86
2023-02-12T16:23:14.713Z,17.89
2023-02-12T16:25:41.057Z,17.92
2023-02-12T16:28:08.545Z,17.94
2023-02-12T16:30:35.658Z,17.97
2023-02-12T16:33:02.025Z,17.99
2023-02-12T16:35:33.983Z,18.04
2023-02-12T16:38:00.307Z,18.06
2023-02-12T16:40:26.842Z,18.08
2023-02-12T16:42:53.128Z,18.09
2023-02-12T16:45:19.568Z,18.12
2023-02-12T16:47:45.921Z,18.14
2023-02-12T16:50:12.715Z,18.15
2023-02-12T16:52:39.123Z,18.18
2023-02-12T16:55:08.221Z,18.20
2023-02-12T16:57:34.760Z,18.22
2023-02-12T17:00:01.836Z,18.22
2023-02-12T17:02:28.107Z,18.25
2023-02-12T17:04:55.773Z,18.26
2023-02-12T17:07:22.920Z,18.27
2023-02-12T17:09:49.336Z,18.28
2023-02-12T17:12:15.820Z,18.29
2023-02-12T17:14:42.124Z,18.30
2023-02-12T17:17:08.636Z,18.31
2023-02-12T17:19:35.909Z,18.32
2023-02-12T17:22:02.268Z,18.31
2023-02-12T17:24:28.685Z,18.32
2023-02-12T17:26:55.832Z,18.34
2023-02-12T17:29:25.931Z,18.35
2023-02-12T17:31:52.436Z,18.35
2023-02-12T17:34:19.946Z,18.36
2023-02-12T17:36:46.402Z,18.38
2023-02-12T17:41:56.825Z,18.39
2023-02-12T17:44:23.887Z,18.38
2023-02-12T17:46:50.391Z,18.38
2023-02-12T17:49:19.913Z,18.37
2023-02-12T17:51:46.341Z,18.39
2023-02-12T17:54:12.647Z,18.37
2023-02-12T17:56:39.159Z,18.37
2023-02-12T17:59:05.750Z,18.37
2023-02-12T18:01:32.151Z,18.37
2023-02-12T18:03:58.941Z,18.37
2023-02-12T18:06:25.297Z,18.36
2023-02-12T18:08:51.600Z,18.36
2023-02-12T18:11:33.481Z,18.35
2023-02-12T18:14:00.078Z,18.35
2023-02-12T18:16:26.563Z,18.34
2023-02-12T18:18:53.256Z,18.33
2023-02-12T18:21:19.622Z,18.33
2023-02-12T18:23:46.584Z,18.34
2023-02-12T18:26:13.311Z,18.33
2023-02-12T18:28:40.177Z,18.34
2023-02-12T18:31:06.793Z,18.34
2023-02-12T18:33:33.783Z,18.35
2023-02-12T18:36:00.171Z,18.35
2023-02-12T18:38:27.591Z,18.36
2023-02-12T18:40:54.130Z,18.35
2023-02-12T18:43:20.901Z,18.34
2023-02-12T18:45:47.374Z,18.36
2023-02-12T18:48:18.479Z,18.35
2023-02-12T18:50:44.760Z,18.35
2023-02-12T18:53:11.061Z,18.35
2023-02-12T18:55:37.418Z,18.35
2023-02-12T18:58:03.889Z,18.35
2023-02-12T19:00:31.295Z,18.34
2023-02-12T19:02:57.539Z,18.33
2023-02-12T19:05:23.804Z,18.32
2023-02-12T19:07:50.811Z,18.31
2023-02-12T19:10:17.207Z,18.31
2023-02-12T19:12:43.503Z,18.29
2023-02-12T19:15:09.819Z,18.27
2023-02-12T19:17:36.345Z,18.27
2023-02-12T19:20:02.702Z,18.26
2023-02-12T19:22:31.274Z,18.27
2023-02-12T19:24:57.565Z,18.26
2023-02-12T19:27:24.552Z,18.26
2023-02-12T19:29:50.938Z,18.27
2023-02-12T19:32:17.481Z,18.29
2023-02-12T19:34:44.275Z,18.29
2023-02-12T19:37:11.706Z,18.30
2023-02-12T19:39:38.100Z,18.31
2023-02-12T19:42:04.411Z,18.32
2023-02-12T19:44:31.348Z,18.32
2023-02-12T19:46:57.960Z,18.33
2023-02-12T19:49:24.438Z,18.33
2023-02-12T19:51:50.807Z,18.33
2023-02-12T19:54:17.352Z,18.35
2023-02-12T19:56:44.430Z,18.34
2023-02-12T19:59:10.838Z,18.33
2023-02-12T20:01:37.228Z,18.33
2023-02-12T20:04:03.626Z,18.32
2023-02-12T20:06:29.987Z,18.31
2023-02-12T20:08:56.531Z,18.30
2023-02-12T20:11:22.880Z,18.30
2023-02-12T20:13:49.237Z,18.29
2023-02-12T20:16:15.780Z,18.28
2023-02-12T20:18:42.139Z,18.27
2023-02-12T20:21:08.591Z,18.26
2023-02-12T20:23:37.000Z,18.24
2023-02-12T20:26:03.686Z,18.22
2023-02-12T20:28:30.164Z,18.22
2023-02-12T20:30:56.987Z,18.21
2023-02-12T20:33:23.469Z,18.19
2023-02-12T20:35:50.030Z,18.19
2023-02-12T20:38:16.408Z,18.18
2023-02-12T20:40:42.892Z,18.20
2023-02-12T20:43:17.879Z,18.18
2023-02-12T20:45:44.284Z,18.21
2023-02-12T20:48:11.388Z,18.20
2023-02-12T20:50:43.023Z,18.21
2023-02-12T20:53:09.581Z,18.21
2023-02-12T20:55:39.095Z,18.21
2023-02-12T20:58:06.009Z,18.20
2023-02-12T21:00:33.705Z,18.20
2023-02-12T21:03:01.060Z,18.20
2023-02-12T21:05:27.513Z,18.19
2023-02-12T21:07:53.829Z,18.19
2023-02-12T21:10:20.115Z,18.18
2023-02-12T21:12:47.372Z,18.18
2023-02-12T21:15:13.775Z,18.19
2023-02-12T21:17:42.086Z,18.17
2023-02-12T21:20:08.503Z,18.17
2023-02-12T21:22:34.871Z,18.17
2023-02-12T21:25:01.258Z,18.16
2023-02-12T21:27:28.420Z,18.16
2023-02-12T21:29:54.689Z,18.14
2023-02-12T21:32:21.059Z,18.14
2023-02-12T21:34:48.876Z,18.14
2023-02-12T21:37:15.814Z,18.14
2023-02-12T21:39:45.314Z,18.13
2023-02-12T21:42:11.612Z,18.13
2023-02-12T21:44:37.893Z,18.13
2023-02-12T21:47:04.234Z,18.12
2023-02-12T21:49:30.811Z,18.10
2023-02-12T21:51:57.095Z,18.11
2023-02-12T21:54:23.573Z,18.11
2023-02-12T21:56:49.978Z,18.11
2023-02-12T21:59:16.383Z,18.10
2023-02-12T22:01:42.702Z,18.10
2023-02-12T22:04:09.107Z,18.08
2023-02-12T22:06:35.373Z,18.07
2023-02-12T22:09:01.693Z,18.07
2023-02-12T22:11:27.979Z,18.07
2023-02-12T22:13:55.759Z,18.06
2023-02-12T22:16:22.918Z,18.06
2023-02-12T22:18:49.758Z,18.05
2023-02-12T22:21:16.731Z,18.04
2023-02-12T22:23:43.713Z,18.04
2023-02-12T22:26:10.082Z,18.03
2023-02-12T22:28:36.465Z,18.02
2023-02-12T22:31:02.771Z,18.01
2023-02-12T22:33:29.171Z,18.00
2023-02-12T22:35:55.728Z,17.99
2023-02-12T22:38:22.011Z,17.98
2023-02-12T22:40:48.342Z,17.97
2023-02-12T22:43:14.658Z,17.96
2023-02-12T22:45:43.103Z,17.95
2023-02-12T22:48:09.356Z,17.94
2023-02-12T22:50:37.095Z,17.93
2023-02-12T22:53:03.552Z,17.92
2023-02-12T22:55:30.914Z,17.91
2023-02-12T22:57:57.309Z,17.91
2023-02-12T23:00:23.580Z,17.89
2023-02-12T23:02:49.948Z,17.88
2023-02-12T23:05:16.930Z,17.87
2023-02-12T23:07:43.706Z,17.87
2023-02-12T23:10:10.105Z,17.85
2023-02-12T23:12:36.360Z,17.84
2023-02-12T23:15:02.711Z,17.83
2023-02-12T23:23:09.906Z,17.80
2023-02-12T23:25:36.469Z,17.79
2023-02-12T23:28:05.546Z,17.78
2023-02-12T23:30:31.957Z,17.77
2023-02-12T23:32:58.307Z,17.76
2023-02-12T23:35:24.572Z,17.74
2023-02-12T23:37:50.884Z,17.74
2023-02-12T23:40:17.201Z,17.73
2023-02-12T23:42:43.545Z,17.72
2023-02-12T23:45:09.923Z,17.70
2023-02-12T23:47:36.282Z,17.71
2023-02-12T23:50:02.705Z,17.69
2023-02-12T23:52:30.120Z,17.68
2023-02-12T23:54:56.485Z,17.67
2023-02-12T23:57:24.183Z,17.66
2023-02-12T23:59:51.343Z,17.65
